createdAt,value
2022-11-07T00:01:21.308Z,317.33333
2022-11-07T00:06:29.445Z,344
2022-11-07T00:11:32.275Z,384
2022-11-07T00:16:34.075Z,365.91781
2022-11-07T00:21:35.994Z,344
2022-11-07T00:26:38.243Z,341.41935
2022-11-07T00:31:40.271Z,329
2022-11-07T00:36:42.039Z,363.04762
2022-11-07T00:41:43.993Z,357.42282
2022-11-07T00:46:46.038Z,351.94702
2022-11-07T00:51:47.458Z,331.42138
2022-11-07T00:56:49.866Z,349.26316
2022-11-07T01:01:52.331Z,336.35669
2022-11-07T01:06:54.203Z,326.6087
2022-11-07T01:11:55.978Z,321.91411
2022-11-07T01:16:57.958Z,310.66667
2022-11-07T01:21:59.804Z,292.0226
2022-11-07T01:27:01.859Z,263.17098
2022-11-07T01:32:04.418Z,245.96078
2022-11-07T01:37:06.621Z,240.15385
2022-11-07T01:42:08.813Z,224
2022-11-07T01:47:10.602Z,226.56881
2022-11-07T01:52:12.049Z,221.47748
2022-11-07T01:57:13.809Z,233.20188
2022-11-07T02:02:15.902Z,233.20188
2022-11-07T02:07:17.577Z,253.54774
2022-11-07T02:12:19.031Z,237.33333
2022-11-07T02:17:20.854Z,241.58454
2022-11-07T02:22:22.310Z,238.73684
2022-11-07T02:27:24.122Z,241.58454
2022-11-07T02:32:25.926Z,268.21053
2022-11-07T02:37:27.425Z,308.49704
2022-11-07T02:42:29.140Z,319.60976
2022-11-07T02:47:30.667Z,329
2022-11-07T02:52:32.124Z,349.26316
2022-11-07T02:57:33.794Z,354.66667
2022-11-07T03:02:35.829Z,351.94702
2022-11-07T03:07:37.340Z,333.87342
2022-11-07T03:12:39.003Z,326.6087
2022-11-07T03:17:40.469Z,338.87179
2022-11-07T03:22:41.934Z,308.49704
2022-11-07T03:27:43.354Z,269.92593
2022-11-07T03:32:45.255Z,273.41176
2022-11-07T03:37:46.976Z,276.97297
2022-11-07T03:42:48.621Z,278.78261
2022-11-07T03:47:50.485Z,243.02913
2022-11-07T03:52:52.132Z,252
2022-11-07T03:57:53.591Z,244.4878
2022-11-07T04:02:55.899Z,229.18519
2022-11-07T04:07:57.588Z,247.44828
2022-11-07T04:12:59.313Z,231.85047
2022-11-07T04:18:00.929Z,184.625
2022-11-07T04:23:02.788Z,156.41379
2022-11-07T04:28:04.391Z,145.30719
2022-11-07T04:33:06.382Z,170.47059
2022-11-07T04:38:07.879Z,159.38462
2022-11-07T04:43:09.504Z,132.3792
2022-11-07T04:48:11.289Z,149.33333
2022-11-07T04:53:13.319Z,137.10345
2022-11-07T04:58:15.216Z,131.23404
2022-11-07T05:03:17.656Z,160.90141
2022-11-07T05:08:19.665Z,146.63158
2022-11-07T05:13:21.427Z,131.23404
2022-11-07T05:18:23.207Z,142.70968
2022-11-07T05:23:25.100Z,147.30033
2022-11-07T05:28:35.294Z,146.63158
2022-11-07T05:33:39.289Z,138.93671
2022-11-07T05:38:41.043Z,176.45283
2022-11-07T05:43:42.797Z,156.41379
2022-11-07T05:48:44.632Z,158.63415
2022-11-07T05:53:46.426Z,163.21708
2022-11-07T05:58:48.322Z,170.47059
2022-11-07T06:03:50.384Z,182.75969
2022-11-07T06:08:52.138Z,156.41379
2022-11-07T06:13:53.787Z,184.625
2022-11-07T06:18:55.688Z,222.73303
2022-11-07T06:23:57.433Z,224
2022-11-07T06:28:59.198Z,210.66667
2022-11-07T06:34:01.274Z,202.82353
2022-11-07T06:39:03.146Z,215.36564
2022-11-07T06:44:04.892Z,224
2022-11-07T06:49:06.879Z,225.27854
2022-11-07T06:54:08.652Z,280.61202
2022-11-07T06:59:10.424Z,331.42138
2022-11-07T07:04:12.433Z,243.02913
2022-11-07T07:09:14.119Z,357.42282
2022-11-07T07:14:15.926Z,371.77778
2022-11-07T07:19:17.931Z,360.21622
2022-11-07T07:24:19.735Z,374.76923
2022-11-07T07:29:21.643Z,380.87943
2022-11-07T07:34:23.517Z,324.24691
2022-11-07T07:39:25.231Z,333.87342
2022-11-07T07:44:26.679Z,368.82759
2022-11-07T07:49:28.296Z,371.77778
2022-11-07T07:54:30.065Z,380.87943
2022-11-07T07:59:31.589Z,357.42282
2022-11-07T08:04:33.297Z,417.84615
2022-11-07T08:09:34.981Z,377.80282
2022-11-07T08:14:36.580Z,396.94118
2022-11-07T08:19:38.330Z,387.16547
2022-11-07T08:24:39.815Z,475.03448
2022-11-07T08:29:41.378Z,509.13761
2022-11-07T08:34:43.452Z,547.92157
2022-11-07T08:39:44.899Z,498.95495
2022-11-07T08:44:46.374Z,425.25
2022-11-07T08:49:48.196Z,448.91803
2022-11-07T08:54:49.607Z,606.36559
2022-11-07T08:59:51.107Z,677.33333
2022-11-07T09:04:53.182Z,733.74359
2022-11-07T09:09:54.993Z,953.83607
2022-11-07T09:14:56.530Z,937.54839
2022-11-07T09:19:58.199Z,988.0678
2022-11-07T09:25:00.054Z,937.54839
2022-11-07T09:30:02.051Z,1064
2022-11-07T09:35:05.181Z,1044
2022-11-07T09:40:07.373Z,988.0678
2022-11-07T09:45:09.369Z,1064
2022-11-07T09:50:11.477Z,836.75362
2022-11-07T09:55:13.473Z,849.88235
2022-11-07T10:00:16.088Z,1344
2022-11-07T10:05:17.973Z,1176
2022-11-07T10:10:19.865Z,906.5
2022-11-07T10:15:21.739Z,988.0678
2022-11-07T10:20:25.156Z,1128.61538
2022-11-07T10:25:26.936Z,1312.88889
2022-11-07T10:30:28.529Z,704.49383
2022-11-07T10:35:30.273Z,836.75362
2022-11-07T10:40:31.755Z,1201.14286
2022-11-07T10:45:33.330Z,1024.70175
2022-11-07T10:50:34.871Z,1312.88889
2022-11-07T10:55:36.477Z,1446.43902
2022-11-07T11:00:38.121Z,1376.55814
2022-11-07T11:05:40.022Z,1201.14286
2022-11-07T11:10:41.481Z,1044
2022-11-07T11:15:43.139Z,1254.6383
2022-11-07T11:20:44.748Z,1064
2022-11-07T11:25:46.331Z,1227.33333
2022-11-07T11:30:47.995Z,1201.14286
2022-11-07T11:35:49.755Z,988.0678
2022-11-07T11:40:53.359Z,1151.84314
2022-11-07T11:45:57.234Z,1283.13043
2022-11-07T11:50:58.726Z,1227.33333
2022-11-07T11:56:00.169Z,1176
2022-11-07T12:01:02.063Z,970.66667
2022-11-07T12:06:03.810Z,1176
2022-11-07T12:11:05.278Z,953.83607
2022-11-07T12:16:06.734Z,1106.26415
2022-11-07T12:21:08.474Z,891.69231
2022-11-07T12:26:10.270Z,1024.70175
2022-11-07T12:31:12.148Z,1376.55814
2022-11-07T12:36:14.332Z,1410.66667
2022-11-07T12:41:16.257Z,1084.74074
2022-11-07T12:46:18.168Z,1254.6383
2022-11-07T12:51:19.994Z,579.05155
2022-11-07T12:56:21.980Z,824
2022-11-07T13:01:23.921Z,636.13483
2022-11-07T13:06:26.212Z,723.74684
2022-11-07T13:11:27.879Z,547.92157
2022-11-07T13:16:29.564Z,514.37037
2022-11-07T13:21:31.372Z,553.90099
2022-11-07T13:26:47.038Z,479.65217
2022-11-07T13:31:49.659Z,321.91411
2022-11-07T13:36:51.650Z,470.49573
2022-11-07T13:41:53.655Z,494
2022-11-07T13:46:55.431Z,414.22901
2022-11-07T13:51:57.390Z,396.94118
2022-11-07T13:56:59.449Z,417.84615
2022-11-07T14:02:01.532Z,400.2963
2022-11-07T14:07:03.750Z,387.16547
2022-11-07T14:12:05.749Z,425.25
2022-11-07T14:17:07.579Z,542.05825
2022-11-07T14:22:14.563Z,440.77419
2022-11-07T14:27:16.562Z,479.65217
2022-11-07T14:32:18.361Z,410.66667
2022-11-07T14:37:20.480Z,429.03937
2022-11-07T14:42:22.319Z,461.64706
2022-11-07T14:47:24.225Z,444.81301
2022-11-07T14:52:26.343Z,466.0339
2022-11-07T14:57:28.446Z,553.90099
2022-11-07T15:02:30.192Z,425.25
2022-11-07T15:07:32.146Z,514.37037
2022-11-07T15:12:33.600Z,448.91803
2022-11-07T15:17:39.957Z,351.94702
2022-11-07T15:22:42.159Z,509.13761
2022-11-07T15:27:44.009Z,384
2022-11-07T15:32:46.035Z,417.84615
2022-11-07T15:37:48.133Z,380.87943
2022-11-07T15:42:50.353Z,514.37037
2022-11-07T15:47:51.939Z,613.56522
2022-11-07T15:52:54.104Z,525.13208
2022-11-07T15:57:55.889Z,536.30769
2022-11-07T16:02:57.898Z,530.66667
2022-11-07T16:07:59.966Z,300.06936
2022-11-07T16:13:05.021Z,324.24691
2022-11-07T16:18:06.965Z,333.87342
2022-11-07T16:23:08.916Z,271.65957
2022-11-07T16:28:10.495Z,229.18519
2022-11-07T16:33:12.273Z,387.16547
2022-11-07T16:38:15.277Z,312.86228
2022-11-07T16:43:17.070Z,321.91411
2022-11-07T16:48:18.877Z,296
2022-11-07T16:53:20.725Z,256.69036
2022-11-07T16:58:22.277Z,280.61202
2022-11-07T17:03:24.000Z,253.54774
2022-11-07T17:08:25.924Z,250.46766
2022-11-07T17:13:27.655Z,259.89744
2022-11-07T17:18:29.650Z,245.96078
2022-11-07T17:23:31.333Z,284.33149
2022-11-07T17:28:33.056Z,300.06936
2022-11-07T17:33:34.507Z,255.11111
2022-11-07T17:38:36.526Z,319.60976
2022-11-07T17:43:38.115Z,245.96078
2022-11-07T17:48:44.763Z,271.65957
2022-11-07T17:53:49.513Z,256.69036
2022-11-07T17:58:51.340Z,271.65957
2022-11-07T18:03:53.101Z,235.94313
2022-11-07T18:08:55.798Z,271.65957
2022-11-07T18:13:57.863Z,298.02299
2022-11-07T18:18:59.620Z,252
2022-11-07T18:24:01.677Z,269.92593
2022-11-07T18:29:03.423Z,261.52577
2022-11-07T18:34:04.912Z,261.52577
2022-11-07T18:39:07.152Z,317.33333
2022-11-07T18:44:08.957Z,286.22222
2022-11-07T18:49:10.868Z,302.13953
2022-11-07T18:54:12.418Z,298.02299
2022-11-07T18:59:14.394Z,266.51309
2022-11-07T19:04:16.214Z,284.33149
2022-11-07T19:09:20.626Z,312.86228
2022-11-07T19:14:24.238Z,333.87342
2022-11-07T19:19:26.036Z,275.1828
2022-11-07T19:24:28.057Z,333.87342
2022-11-07T19:29:30.159Z,300.06936
2022-11-07T19:34:31.972Z,336.35669
2022-11-07T19:39:33.816Z,351.94702
2022-11-07T19:44:35.623Z,403.70149
2022-11-07T19:49:37.091Z,414.22901
2022-11-07T19:54:38.896Z,453.09091
2022-11-07T20:04:41.549Z,432.88889
2022-11-07T20:09:43.331Z,448.91803
2022-11-07T20:14:44.995Z,479.65217
2022-11-07T20:19:47.117Z,421.51938
2022-11-07T20:24:48.879Z,414.22901
2022-11-07T20:29:50.690Z,444.81301
2022-11-07T20:34:53.947Z,349.26316
2022-11-07T20:39:55.864Z,351.94702
2022-11-07T20:44:57.535Z,400.2963
2022-11-07T20:49:59.344Z,341.41935
2022-11-07T20:55:01.122Z,306.35294
2022-11-07T21:00:02.921Z,282.46154
2022-11-07T21:05:20.253Z,286.22222
2022-11-07T21:10:22.145Z,302.13953
2022-11-07T21:15:23.606Z,276.97297
2022-11-07T21:20:25.310Z,271.65957
2022-11-07T21:25:26.762Z,238.73684
2022-11-07T21:30:28.249Z,245.96078
2022-11-07T21:35:33.505Z,244.4878
2022-11-07T21:40:35.250Z,241.58454
2022-11-07T21:45:37.069Z,250.46766
2022-11-07T21:50:44.620Z,284.33149
2022-11-07T21:55:47.068Z,357.42282
2022-11-07T22:00:49.047Z,371.77778
2022-11-07T22:05:51.070Z,341.41935
2022-11-07T22:10:52.950Z,363.04762
2022-11-07T22:15:54.883Z,338.87179
2022-11-07T22:20:56.905Z,331.42138
2022-11-07T22:25:58.662Z,336.35669
2022-11-07T22:31:00.129Z,324.24691
2022-11-07T22:36:01.876Z,312.86228
2022-11-07T22:41:03.681Z,336.35669
2022-11-07T22:46:05.458Z,329
2022-11-07T22:51:07.255Z,368.82759
2022-11-07T22:56:08.938Z,377.80282
2022-11-07T23:01:10.704Z,354.66667
2022-11-07T23:06:12.955Z,357.42282
2022-11-07T23:11:44.861Z,331.42138
2022-11-07T23:16:47.713Z,321.91411
2022-11-07T23:21:49.426Z,319.60976
2022-11-07T23:26:51.049Z,296
2022-11-07T23:31:52.691Z,292.0226
2022-11-07T23:36:54.529Z,245.96078
2022-11-07T23:41:56.321Z,248.9505
2022-11-07T23:46:58.142Z,264.83333
2022-11-07T23:52:00.111Z,268.21053
2022-11-07T23:57:01.948Z,329
